Time;durP1;ratioP1;P1;durP2;ratioP2;P2;SDS_P1;SDS_P2;PMS_P1;PMS_P2;Temp;Humidity;BMP_temperature;BMP_pressure;BME280_temperature;BME280_humidity;BME280_pressure;Samples;Min_cycle;Max_cycle;Signal;HPM_P1;HPM_P2
2023/10/28 00:00:16;;;;;;;132.98;6.88;;;;;;;;;;4978168;28;20050;-54
2023/10/28 00:02:41;;;;;;;282.55;12.05;;;;;;;;;;4976103;28;20057;-54
2023/10/28 00:05:07;;;;;;;146.20;7.45;;;;;;;;;;4978059;28;20057;-55
2023/10/28 00:07:32;;;;;;;126.97;6.70;;;;;;;;;;4977158;28;20022;-54
2023/10/28 00:09:57;;;;;;;158.73;7.55;;;;;;;;;;4979490;28;20026;-54
2023/10/28 00:12:23;;;;;;;122.90;6.83;;;;;;;;;;4978555;28;20030;-54
2023/10/28 00:14:48;;;;;;;215.13;9.57;;;;;;;;;;4977105;28;20315;-54
2023/10/28 00:17:13;;;;;;;163.13;8.02;;;;;;;;;;4978780;28;20706;-54
2023/10/28 00:19:38;;;;;;;184.93;9.65;;;;;;;;;;4977339;28;20026;-53
2023/10/28 00:22:04;;;;;;;151.17;7.17;;;;;;;;;;4979265;28;20117;-53
2023/10/28 00:24:29;;;;;;;160.30;7.30;;;;;;;;;;4977819;28;21002;-55
2023/10/28 00:26:54;;;;;;;117.50;5.67;;;;;;;;;;4978345;28;20308;-54
2023/10/28 00:29:19;;;;;;;165.63;7.63;;;;;;;;;;4976707;28;20320;-54
2023/10/28 00:31:45;;;;;;;219.43;8.60;;;;;;;;;;4977071;28;20474;-54
2023/10/28 00:34:10;;;;;;;159.35;7.18;;;;;;;;;;4977548;28;20401;-54
2023/10/28 00:36:35;;;;;;;210.13;8.70;;;;;;;;;;4975601;28;20395;-54
2023/10/28 00:39:01;;;;;;;184.57;7.60;;;;;;;;;;4979751;28;20026;-54
2023/10/28 00:41:26;;;;;;;115.57;4.67;;;;;;;;;;4977417;28;20027;-54
2023/10/28 00:43:52;;;;;;;314.10;18.33;;;;;;;;;;4975822;28;20332;-53
2023/10/28 00:46:17;;;;;;;182.52;13.65;;;;;;;;;;4978012;28;20089;-54
2023/10/28 00:48:42;;;;;;;198.15;8.00;;;;;;;;;;4980240;28;20421;-54
2023/10/28 00:51:08;;;;;;;169.23;6.97;;;;;;;;;;4977722;28;20041;-53
2023/10/28 00:53:34;;;;;;;142.90;6.25;;;;;;;;;;4976106;28;20118;-53
2023/10/28 00:56:01;;;;;;;141.48;6.07;;;;;;;;;;4975872;28;20037;-54
2023/10/28 00:58:27;;;;;;;166.82;7.03;;;;;;;;;;4976769;28;20026;-54
2023/10/28 01:00:52;;;;;;;248.60;10.00;;;;;;;;;;4977650;28;20117;-54
2023/10/28 01:03:18;;;;;;;141.23;5.80;;;;;;;;;;4978833;28;20101;-54
2023/10/28 01:05:44;;;;;;;219.85;8.85;;;;;;;;;;4978112;28;20038;-54
2023/10/28 01:08:09;;;;;;;128.90;5.65;;;;;;;;;;4980196;28;20034;-54
2023/10/28 01:10:35;;;;;;;80.95;4.40;;;;;;;;;;4978245;28;20101;-54
2023/10/28 01:13:01;;;;;;;198.55;7.82;;;;;;;;;;4979312;28;20168;-54
2023/10/28 01:15:26;;;;;;;88.18;4.53;;;;;;;;;;4981266;28;20031;-54
2023/10/28 01:17:52;;;;;;;249.43;10.30;;;;;;;;;;4981386;28;20035;-54
2023/10/28 01:20:18;;;;;;;176.40;7.30;;;;;;;;;;4981002;28;20332;-54
2023/10/28 01:22:43;;;;;;;200.82;9.13;;;;;;;;;;4982348;28;20014;-54
2023/10/28 01:25:09;;;;;;;170.95;6.80;;;;;;;;;;4981741;28;20015;-52
2023/10/28 01:27:34;;;;;;;172.02;6.90;;;;;;;;;;4983705;28;20090;-54
2023/10/28 01:30:00;;;;;;;153.52;6.72;;;;;;;;;;4981738;28;20045;-52
2023/10/28 01:32:25;;;;;;;132.73;6.05;;;;;;;;;;4981271;28;20518;-53
2023/10/28 01:34:53;;;;;;;251.23;10.30;;;;;;;;;;4994469;28;20612;-53
2023/10/28 01:37:19;;;;;;;128.93;5.68;;;;;;;;;;4981101;28;20261;-53
2023/10/28 01:39:47;;;;;;;192.68;8.00;;;;;;;;;;4980846;28;20025;-53
2023/10/28 01:42:13;;;;;;;172.05;7.32;;;;;;;;;;4980910;28;20039;-53
2023/10/28 01:44:38;;;;;;;151.35;6.72;;;;;;;;;;4979535;28;20030;-56
2023/10/28 01:47:04;;;;;;;204.70;8.23;;;;;;;;;;4978796;28;20061;-54
2023/10/28 01:49:31;;;;;;;134.32;6.03;;;;;;;;;;4983218;28;20030;-54
2023/10/28 01:51:56;;;;;;;158.73;6.95;;;;;;;;;;4980185;28;20572;-55
2023/10/28 01:54:22;;;;;;;105.30;5.10;;;;;;;;;;4979796;28;20026;-53
2023/10/28 01:56:47;;;;;;;241.07;9.77;;;;;;;;;;4981343;28;20092;-53
2023/10/28 01:59:12;;;;;;;138.60;5.85;;;;;;;;;;4983075;28;20030;-53
2023/10/28 02:01:38;;;;;;;87.47;4.80;;;;;;;;;;4979061;28;20046;-53
2023/10/28 02:04:06;;;;;;;220.45;8.00;;;;;;;;;;4980398;28;20018;-54
2023/10/28 02:06:31;;;;;;;181.48;7.15;;;;;;;;;;4981377;28;20066;-53
2023/10/28 02:08:57;;;;;;;138.57;6.28;;;;;;;;;;4981080;28;20497;-54
2023/10/28 02:11:23;;;;;;;125.17;5.53;;;;;;;;;;4980336;28;20101;-54
2023/10/28 02:13:49;;;;;;;280.33;11.38;;;;;;;;;;4979443;28;20293;-53
2023/10/28 02:16:14;;;;;;;158.52;6.25;;;;;;;;;;4979609;28;20118;-53
2023/10/28 02:18:40;;;;;;;158.30;6.90;;;;;;;;;;4981078;28;20133;-53
2023/10/28 02:21:05;;;;;;;157.98;6.45;;;;;;;;;;4982485;28;20030;-53
2023/10/28 02:23:31;;;;;;;145.95;5.93;;;;;;;;;;4979136;28;20466;-53
2023/10/28 02:25:56;;;;;;;175.17;7.07;;;;;;;;;;4979771;28;20048;-54
2023/10/28 02:28:21;;;;;;;177.90;7.10;;;;;;;;;;4979853;28;20270;-53
2023/10/28 02:30:46;;;;;;;209.23;9.30;;;;;;;;;;4978809;28;20298;-54
2023/10/28 02:33:12;;;;;;;145.18;6.00;;;;;;;;;;4982338;28;20037;-54
2023/10/28 02:35:37;;;;;;;155.30;6.45;;;;;;;;;;4979766;28;20525;-53
2023/10/28 02:38:02;;;;;;;147.63;6.17;;;;;;;;;;4979778;28;20129;-54
2023/10/28 02:40:28;;;;;;;149.48;6.10;;;;;;;;;;4977962;28;21200;-53
2023/10/28 02:42:53;;;;;;;287.15;11.25;;;;;;;;;;4976745;28;20648;-53
2023/10/28 02:45:18;;;;;;;194.02;7.32;;;;;;;;;;4980590;28;20034;-53
2023/10/28 02:47:44;;;;;;;162.37;7.20;;;;;;;;;;4980381;28;20034;-53
2023/10/28 02:50:09;;;;;;;183.77;7.10;;;;;;;;;;4979759;28;20277;-54
2023/10/28 02:52:34;;;;;;;187.48;7.07;;;;;;;;;;4979890;28;20014;-54
2023/10/28 02:55:00;;;;;;;155.20;6.38;;;;;;;;;;4977171;28;20023;-53
2023/10/28 02:57:25;;;;;;;132.23;5.77;;;;;;;;;;4979757;28;20179;-54
2023/10/28 02:59:50;;;;;;;217.43;9.13;;;;;;;;;;4975389;28;20368;-53
2023/10/28 03:02:16;;;;;;;124.13;5.38;;;;;;;;;;4976870;28;20050;-54
2023/10/28 03:04:41;;;;;;;131.00;5.25;;;;;;;;;;4976679;28;20454;-53
2023/10/28 03:07:07;;;;;;;187.60;7.15;;;;;;;;;;4978611;28;20290;-54
2023/10/28 03:09:33;;;;;;;125.22;4.88;;;;;;;;;;4980536;28;20056;-54
2023/10/28 03:11:58;;;;;;;182.13;7.72;;;;;;;;;;4979075;28;20034;-54
2023/10/28 03:14:23;;;;;;;164.05;6.25;;;;;;;;;;4978798;28;20037;-53
2023/10/28 03:16:48;;;;;;;224.00;9.48;;;;;;;;;;4977882;28;20030;-54
2023/10/28 03:19:14;;;;;;;111.40;5.10;;;;;;;;;;4979851;28;20034;-54
2023/10/28 03:21:42;;;;;;;198.13;6.97;;;;;;;;;;4980486;28;20061;-54
2023/10/28 03:24:07;;;;;;;171.00;6.50;;;;;;;;;;4978456;28;20054;-52
2023/10/28 03:26:33;;;;;;;121.13;5.22;;;;;;;;;;4976287;28;20399;-52
2023/10/28 03:28:59;;;;;;;198.83;7.97;;;;;;;;;;4977716;28;20107;-53
2023/10/28 03:31:25;;;;;;;158.70;6.43;;;;;;;;;;4979634;28;20278;-52
2023/10/28 03:33:50;;;;;;;231.48;9.52;;;;;;;;;;4979079;28;20374;-51
2023/10/28 03:36:16;;;;;;;138.82;7.90;;;;;;;;;;4979337;28;20034;-52
2023/10/28 03:38:41;;;;;;;152.80;6.00;;;;;;;;;;4979710;28;20022;-52
2023/10/28 03:41:09;;;;;;;135.68;5.55;;;;;;;;;;4976740;28;20426;-52
2023/10/28 03:43:35;;;;;;;90.55;4.18;;;;;;;;;;4982672;28;20062;-52
2023/10/28 03:46:00;;;;;;;189.70;7.22;;;;;;;;;;4978070;28;20355;-52
2023/10/28 03:48:26;;;;;;;136.18;5.38;;;;;;;;;;4982600;28;20030;-52
2023/10/28 03:51:11;;;;;;;206.35;8.68;;;;;;;;;;4979864;28;20030;-53
2023/10/28 03:53:36;;;;;;;139.02;5.53;;;;;;;;;;4979347;28;20045;-52
2023/10/28 03:56:02;;;;;;;203.52;8.60;;;;;;;;;;4977212;28;20039;-52
2023/10/28 03:58:28;;;;;;;146.55;5.97;;;;;;;;;;4980987;28;21265;-53
2023/10/28 04:00:53;;;;;;;184.80;7.22;;;;;;;;;;4976572;28;20049;-52
2023/10/28 04:03:22;;;;;;;110.18;5.10;;;;;;;;;;4981543;28;20033;-52
2023/10/28 04:05:47;;;;;;;160.18;6.50;;;;;;;;;;4977874;28;20474;-52
2023/10/28 04:08:13;;;;;;;151.45;11.23;;;;;;;;;;4982169;28;20584;-53
2023/10/28 04:10:38;;;;;;;115.28;4.95;;;;;;;;;;4980057;28;20041;-52
2023/10/28 04:13:04;;;;;;;146.00;5.80;;;;;;;;;;4977396;28;21750;-53
2023/10/28 04:15:29;;;;;;;94.43;4.50;;;;;;;;;;4977580;28;20722;-52
2023/10/28 04:17:54;;;;;;;207.07;8.02;;;;;;;;;;4978532;28;20015;-52
2023/10/28 04:20:20;;;;;;;135.98;7.35;;;;;;;;;;4978084;28;20084;-55
2023/10/28 04:22:45;;;;;;;95.95;4.20;;;;;;;;;;4981398;28;20083;-55
2023/10/28 04:25:10;;;;;;;174.73;6.03;;;;;;;;;;4979047;28;20177;-55
2023/10/28 04:27:35;;;;;;;136.85;5.30;;;;;;;;;;4981035;28;20517;-55
2023/10/28 04:30:04;;;;;;;173.35;6.90;;;;;;;;;;4979475;28;20027;-55
2023/10/28 04:32:29;;;;;;;138.63;5.45;;;;;;;;;;4978667;28;20065;-55
2023/10/28 04:34:55;;;;;;;211.43;8.50;;;;;;;;;;4976715;28;20118;-55
2023/10/28 04:37:20;;;;;;;71.60;3.38;;;;;;;;;;4979034;28;20620;-55
2023/10/28 04:39:45;;;;;;;154.77;5.77;;;;;;;;;;4981279;28;20036;-56
2023/10/28 04:42:11;;;;;;;135.88;5.18;;;;;;;;;;4980260;28;20435;-55
2023/10/28 04:44:36;;;;;;;100.63;4.05;;;;;;;;;;4980648;28;20133;-55
2023/10/28 04:47:01;;;;;;;199.83;7.27;;;;;;;;;;4977773;28;20035;-55
2023/10/28 04:49:27;;;;;;;131.50;4.88;;;;;;;;;;4980131;28;20347;-55
2023/10/28 04:51:53;;;;;;;184.85;7.50;;;;;;;;;;4976119;28;20041;-55
2023/10/28 04:54:18;;;;;;;134.05;5.13;;;;;;;;;;4976663;28;20034;-52
2023/10/28 04:56:43;;;;;;;163.68;5.97;;;;;;;;;;4979881;28;20402;-52
2023/10/28 04:59:10;;;;;;;75.20;3.57;;;;;;;;;;4979401;28;20214;-52
2023/10/28 05:01:35;;;;;;;130.52;4.97;;;;;;;;;;4981199;28;20308;-53
2023/10/28 05:04:00;;;;;;;151.73;5.60;;;;;;;;;;4981218;28;20050;-52
2023/10/28 05:06:25;;;;;;;102.45;4.22;;;;;;;;;;4982074;28;20038;-53
2023/10/28 05:08:51;;;;;;;211.07;7.78;;;;;;;;;;4979315;28;20358;-53
2023/10/28 05:11:16;;;;;;;172.40;6.25;;;;;;;;;;4981624;28;20047;-53
2023/10/28 05:13:42;;;;;;;89.25;3.97;;;;;;;;;;4979499;28;20034;-53
2023/10/28 05:16:07;;;;;;;158.85;5.97;;;;;;;;;;4967972;28;20054;-52
2023/10/28 05:18:33;;;;;;;150.43;5.63;;;;;;;;;;4979327;28;20053;-53
2023/10/28 05:20:58;;;;;;;134.88;5.53;;;;;;;;;;4980724;28;20444;-53
2023/10/28 05:23:23;;;;;;;105.93;4.32;;;;;;;;;;4980252;28;20109;-53
2023/10/28 05:25:49;;;;;;;130.63;5.18;;;;;;;;;;4979874;28;20053;-52
2023/10/28 05:28:14;;;;;;;120.22;4.70;;;;;;;;;;4980163;28;20182;-53
2023/10/28 05:30:39;;;;;;;126.57;9.93;;;;;;;;;;4979046;28;20065;-53
2023/10/28 05:33:05;;;;;;;208.25;7.82;;;;;;;;;;4977642;28;20076;-55
2023/10/28 05:35:30;;;;;;;100.43;4.05;;;;;;;;;;4980598;28;20037;-55
2023/10/28 05:37:57;;;;;;;184.38;7.30;;;;;;;;;;4979626;28;20106;-55
2023/10/28 05:40:23;;;;;;;131.45;5.15;;;;;;;;;;4978481;28;20371;-55
2023/10/28 05:42:48;;;;;;;135.48;5.03;;;;;;;;;;4981114;28;20080;-55
2023/10/28 05:45:14;;;;;;;156.02;5.90;;;;;;;;;;4978557;28;20026;-55
2023/10/28 05:47:39;;;;;;;87.00;3.80;;;;;;;;;;4982562;28;20022;-55
2023/10/28 05:50:05;;;;;;;270.63;9.93;;;;;;;;;;4977612;28;20026;-55
2023/10/28 05:52:31;;;;;;;109.68;4.45;;;;;;;;;;4979463;28;20499;-55
2023/10/28 05:54:56;;;;;;;204.05;8.07;;;;;;;;;;4978584;28;20027;-52
2023/10/28 05:57:21;;;;;;;143.45;5.63;;;;;;;;;;4976337;28;20057;-55
2023/10/28 05:59:47;;;;;;;142.05;5.40;;;;;;;;;;4981219;28;20093;-54
2023/10/28 06:02:13;;;;;;;121.30;4.88;;;;;;;;;;4981405;28;20046;-55
2023/10/28 06:04:38;;;;;;;150.75;5.82;;;;;;;;;;4981636;28;20371;-55
2023/10/28 06:07:04;;;;;;;234.57;8.90;;;;;;;;;;4979516;28;20402;-54
2023/10/28 06:09:29;;;;;;;104.85;4.18;;;;;;;;;;4983109;28;20026;-54
2023/10/28 06:11:54;;;;;;;217.13;8.03;;;;;;;;;;4978744;28;20126;-55
2023/10/28 06:14:20;;;;;;;169.88;6.30;;;;;;;;;;4982852;28;22156;-54
2023/10/28 06:16:46;;;;;;;108.70;4.57;;;;;;;;;;4982792;28;20026;-55
2023/10/28 06:19:11;;;;;;;169.90;6.22;;;;;;;;;;4978371;28;21356;-55
2023/10/28 06:21:36;;;;;;;137.40;5.28;;;;;;;;;;4980539;28;20034;-55
2023/10/28 06:24:02;;;;;;;223.47;8.67;;;;;;;;;;4981442;28;20453;-54
2023/10/28 06:26:28;;;;;;;126.65;5.07;;;;;;;;;;4979654;28;20293;-55
2023/10/28 06:28:53;;;;;;;156.57;6.22;;;;;;;;;;4981300;28;20041;-55
2023/10/28 06:31:19;;;;;;;106.50;5.03;;;;;;;;;;4980511;28;20038;-54
2023/10/28 06:33:44;;;;;;;147.02;6.03;;;;;;;;;;4980164;28;20486;-55
2023/10/28 06:36:09;;;;;;;183.40;7.43;;;;;;;;;;4977447;28;20026;-55
2023/10/28 06:38:34;;;;;;;94.03;4.18;;;;;;;;;;4982324;28;20066;-54
2023/10/28 06:41:00;;;;;;;166.07;7.10;;;;;;;;;;4984878;28;20414;-55
2023/10/28 06:43:25;;;;;;;150.25;6.82;;;;;;;;;;4981480;28;20117;-54
2023/10/28 06:45:50;;;;;;;123.60;6.03;;;;;;;;;;4978436;28;20430;-55
2023/10/28 06:48:16;;;;;;;120.00;6.05;;;;;;;;;;4980628;28;20022;-54
2023/10/28 06:50:41;;;;;;;121.93;6.30;;;;;;;;;;4981535;28;20038;-55
2023/10/28 06:53:09;;;;;;;218.32;9.02;;;;;;;;;;4980266;28;20081;-54
2023/10/28 06:55:34;;;;;;;92.90;4.95;;;;;;;;;;4982154;28;20031;-55
2023/10/28 06:57:59;;;;;;;204.68;9.15;;;;;;;;;;4979650;28;20109;-54
2023/10/28 07:00:27;;;;;;;170.17;7.03;;;;;;;;;;4980813;28;20065;-54
2023/10/28 07:02:53;;;;;;;114.63;5.78;;;;;;;;;;4982645;28;20270;-55
2023/10/28 07:05:19;;;;;;;136.82;6.95;;;;;;;;;;4980451;28;20454;-55
2023/10/28 07:07:44;;;;;;;162.50;7.35;;;;;;;;;;4981027;28;20564;-54
2023/10/28 07:10:12;;;;;;;232.02;9.57;;;;;;;;;;4978916;28;20032;-55
2023/10/28 07:12:37;;;;;;;99.40;4.88;;;;;;;;;;4982033;28;20014;-55
2023/10/28 07:15:03;;;;;;;232.27;9.40;;;;;;;;;;4979445;28;20033;-55
2023/10/28 07:17:28;;;;;;;132.35;6.10;;;;;;;;;;4977602;28;20300;-55
2023/10/28 07:19:53;;;;;;;92.03;4.05;;;;;;;;;;4980573;28;20049;-54
2023/10/28 07:22:22;;;;;;;126.68;5.70;;;;;;;;;;4977087;28;20535;-55
2023/10/28 07:24:48;;;;;;;190.95;7.40;;;;;;;;;;4980850;28;20109;-56
2023/10/28 07:27:13;;;;;;;201.98;8.25;;;;;;;;;;4978686;28;20050;-55
2023/10/28 07:29:39;;;;;;;89.60;4.50;;;;;;;;;;4980091;28;20030;-55
2023/10/28 07:32:05;;;;;;;281.98;10.98;;;;;;;;;;4978270;28;20058;-54
2023/10/28 07:34:30;;;;;;;163.35;6.15;;;;;;;;;;4979203;28;20022;-54
2023/10/28 07:36:58;;;;;;;135.27;5.50;;;;;;;;;;4976219;28;20039;-54
2023/10/28 07:39:23;;;;;;;164.48;6.60;;;;;;;;;;4980445;28;20030;-55
2023/10/28 07:41:49;;;;;;;139.10;5.55;;;;;;;;;;4980700;28;20034;-54
2023/10/28 07:44:14;;;;;;;204.55;8.25;;;;;;;;;;4979320;28;20194;-54
2023/10/28 07:46:39;;;;;;;169.13;8.48;;;;;;;;;;4979385;28;20046;-56
2023/10/28 07:49:05;;;;;;;218.73;9.13;;;;;;;;;;4978650;28;20026;-55
2023/10/28 07:51:30;;;;;;;79.70;3.80;;;;;;;;;;4979277;28;20133;-56
2023/10/28 07:53:55;;;;;;;150.30;5.53;;;;;;;;;;4981254;28;20015;-53
2023/10/28 07:56:20;;;;;;;143.20;5.57;;;;;;;;;;4979845;28;20397;-54
2023/10/28 07:58:46;;;;;;;112.10;4.93;;;;;;;;;;4980448;28;20529;-53
2023/10/28 08:01:16;;;;;;;179.32;6.97;;;;;;;;;;4978744;28;20216;-56
2023/10/28 08:03:43;;;;;;;152.70;5.90;;;;;;;;;;4979878;28;20018;-56
2023/10/28 08:06:10;;;;;;;236.50;9.43;;;;;;;;;;4977191;28;20113;-56
2023/10/28 08:08:35;;;;;;;134.20;5.38;;;;;;;;;;4979288;28;20114;-56
2023/10/28 08:11:05;;;;;;;286.77;23.17;;;;;;;;;;4976192;28;20150;-56
2023/10/28 08:13:31;;;;;;;143.65;5.47;;;;;;;;;;4979607;28;20117;-56
2023/10/28 08:15:56;;;;;;;114.70;4.68;;;;;;;;;;4979420;28;20129;-56
2023/10/28 08:18:22;;;;;;;168.95;9.93;;;;;;;;;;4978227;28;20525;-57
2023/10/28 08:20:47;;;;;;;178.77;6.70;;;;;;;;;;4978582;28;20093;-56
2023/10/28 08:23:12;;;;;;;227.83;8.33;;;;;;;;;;4977793;28;20682;-56
2023/10/28 08:25:37;;;;;;;103.28;4.25;;;;;;;;;;4979904;28;20657;-57
2023/10/28 08:28:03;;;;;;;211.40;8.83;;;;;;;;;;4979080;28;20196;-56
2023/10/28 08:30:28;;;;;;;144.13;5.80;;;;;;;;;;4979007;28;20345;-57
2023/10/28 08:32:54;;;;;;;150.77;6.05;;;;;;;;;;4977209;28;20057;-58
2023/10/28 08:35:19;;;;;;;178.07;6.65;;;;;;;;;;4976261;28;20255;-58
2023/10/28 08:37:46;;;;;;;155.82;5.68;;;;;;;;;;4979930;28;20019;-56
2023/10/28 08:40:12;;;;;;;235.95;9.43;;;;;;;;;;4978927;28;20034;-57
2023/10/28 08:42:37;;;;;;;124.55;4.97;;;;;;;;;;4980621;28;20028;-56
2023/10/28 08:45:03;;;;;;;212.73;7.75;;;;;;;;;;4976613;28;20093;-56
2023/10/28 08:47:31;;;;;;;115.70;8.27;;;;;;;;;;4977157;28;20049;-57
2023/10/28 08:49:58;;;;;;;108.13;4.55;;;;;;;;;;4978219;28;20445;-56
2023/10/28 08:52:23;;;;;;;129.60;5.25;;;;;;;;;;4975690;28;20375;-56
2023/10/28 08:54:49;;;;;;;110.50;4.68;;;;;;;;;;4978233;28;20035;-56
2023/10/28 08:57:15;;;;;;;213.35;8.93;;;;;;;;;;4974510;28;20414;-53
2023/10/28 08:59:40;;;;;;;151.80;5.85;;;;;;;;;;4976700;28;20158;-53
2023/10/28 09:02:09;;;;;;;149.43;6.30;;;;;;;;;;4981433;28;20291;-53
2023/10/28 09:04:35;;;;;;;142.20;5.70;;;;;;;;;;4984800;28;20030;-54
2023/10/28 09:07:02;;;;;;;147.93;5.82;;;;;;;;;;4977245;28;20046;-55
2023/10/28 09:09:27;;;;;;;164.35;6.10;;;;;;;;;;4978716;28;20073;-55
2023/10/28 09:11:55;;;;;;;116.28;4.72;;;;;;;;;;4979162;28;20063;-55
2023/10/28 09:14:21;;;;;;;156.05;6.18;;;;;;;;;;4977436;28;20026;-55
2023/10/28 09:16:46;;;;;;;130.35;5.50;;;;;;;;;;4979252;28;20080;-55
2023/10/28 09:19:20;;;;;;;193.45;7.10;;;;;;;;;;4981793;28;20026;-55
2023/10/28 09:21:46;;;;;;;191.45;7.00;;;;;;;;;;4979122;28;20081;-55
2023/10/28 09:24:11;;;;;;;176.98;6.88;;;;;;;;;;4980410;28;20033;-55
2023/10/28 09:26:37;;;;;;;168.65;6.55;;;;;;;;;;4981198;28;20042;-55
2023/10/28 09:29:03;;;;;;;153.77;5.93;;;;;;;;;;4978037;28;20496;-56
2023/10/28 09:31:28;;;;;;;125.70;5.20;;;;;;;;;;4977087;28;20520;-55
2023/10/28 09:33:55;;;;;;;149.00;5.75;;;;;;;;;;4980775;28;21021;-55
2023/10/28 09:36:20;;;;;;;192.82;7.32;;;;;;;;;;4980453;28;20034;-55
2023/10/28 09:38:46;;;;;;;122.70;4.95;;;;;;;;;;4981595;28;20560;-54
2023/10/28 09:41:12;;;;;;;184.80;6.93;;;;;;;;;;4981322;28;20046;-55
2023/10/28 09:43:38;;;;;;;175.85;6.50;;;;;;;;;;4983703;28;20026;-55
2023/10/28 09:46:05;;;;;;;140.77;5.85;;;;;;;;;;4982618;28;20081;-56
2023/10/28 09:48:32;;;;;;;107.82;4.68;;;;;;;;;;4983488;28;20116;-56
2023/10/28 09:50:58;;;;;;;129.20;5.13;;;;;;;;;;4983625;28;20429;-55
2023/10/28 09:53:29;;;;;;;164.00;5.97;;;;;;;;;;4979902;28;20026;-55
2023/10/28 09:55:55;;;;;;;125.05;5.07;;;;;;;;;;4979623;28;20481;-55
2023/10/28 09:58:44;;;;;;;161.77;6.28;;;;;;;;;;4982095;28;20502;-56
2023/10/28 10:01:09;;;;;;;202.00;7.25;;;;;;;;;;4983785;28;20125;-55
2023/10/28 10:03:53;;;;;;;124.38;4.95;;;;;;;;;;4980826;28;20479;-55
2023/10/28 10:06:18;;;;;;;185.40;7.03;;;;;;;;;;4980971;28;20124;-56
2023/10/28 10:08:48;;;;;;;109.53;4.72;;;;;;;;;;4984322;28;20022;-55
2023/10/28 10:11:13;;;;;;;176.15;6.88;;;;;;;;;;4984696;28;20065;-55
2023/10/28 10:13:42;;;;;;;124.97;5.23;;;;;;;;;;4981987;28;20057;-55
2023/10/28 10:16:12;;;;;;;161.23;6.45;;;;;;;;;;4980931;28;20282;-55
2023/10/28 10:18:39;;;;;;;139.90;5.65;;;;;;;;;;4982555;28;20478;-56
2023/10/28 10:21:05;;;;;;;134.82;5.43;;;;;;;;;;4981182;28;20044;-55
2023/10/28 10:23:34;;;;;;;169.27;6.32;;;;;;;;;;4981865;28;20030;-56
2023/10/28 10:26:00;;;;;;;103.35;4.70;;;;;;;;;;4982178;28;20042;-55
2023/10/28 10:28:26;;;;;;;142.15;12.07;;;;;;;;;;4983345;28;20014;-55
2023/10/28 10:30:52;;;;;;;169.90;6.70;;;;;;;;;;4979156;28;20134;-56
2023/10/28 10:33:24;;;;;;;186.60;7.30;;;;;;;;;;4979095;28;20186;-56
2023/10/28 10:35:50;;;;;;;157.45;6.25;;;;;;;;;;4977383;28;20033;-55
2023/10/28 10:38:15;;;;;;;220.25;10.15;;;;;;;;;;4979024;28;20022;-55
2023/10/28 10:40:46;;;;;;;138.85;5.63;;;;;;;;;;4980290;28;20167;-55
2023/10/28 10:43:12;;;;;;;245.20;9.73;;;;;;;;;;4977749;28;20402;-55
2023/10/28 10:45:37;;;;;;;150.05;6.03;;;;;;;;;;4978857;28;20117;-55
2023/10/28 10:48:07;;;;;;;116.72;5.00;;;;;;;;;;4981247;28;20480;-56
2023/10/28 10:50:34;;;;;;;126.82;5.28;;;;;;;;;;4982622;28;20053;-56
2023/10/28 10:53:00;;;;;;;171.02;6.80;;;;;;;;;;4980406;28;20030;-54
2023/10/28 10:55:27;;;;;;;140.85;5.47;;;;;;;;;;4980161;28;20039;-55
2023/10/28 10:57:53;;;;;;;143.68;5.75;;;;;;;;;;4981829;28;20026;-55
2023/10/28 11:00:18;;;;;;;174.88;7.05;;;;;;;;;;4979067;28;20030;-55
2023/10/28 11:02:44;;;;;;;161.60;6.45;;;;;;;;;;4979812;28;20018;-55
2023/10/28 11:05:10;;;;;;;230.55;9.30;;;;;;;;;;4978893;28;20569;-55
2023/10/28 11:07:36;;;;;;;106.40;4.70;;;;;;;;;;4980790;28;20068;-55
2023/10/28 11:10:04;;;;;;;161.13;6.57;;;;;;;;;;4977977;28;20442;-55
2023/10/28 11:12:29;;;;;;;131.90;5.20;;;;;;;;;;4977650;28;20404;-54
2023/10/28 11:14:55;;;;;;;156.25;6.05;;;;;;;;;;4979017;28;20049;-55
2023/10/28 11:17:20;;;;;;;204.73;14.13;;;;;;;;;;4978077;28;20422;-55
2023/10/28 11:19:46;;;;;;;90.97;4.30;;;;;;;;;;4979375;28;20018;-55
2023/10/28 11:22:12;;;;;;;213.52;9.25;;;;;;;;;;4979879;28;20041;-54
2023/10/28 11:24:38;;;;;;;139.30;5.47;;;;;;;;;;4980060;28;20038;-54
2023/10/28 11:27:03;;;;;;;140.07;7.22;;;;;;;;;;4976062;28;20452;-54
2023/10/28 11:29:28;;;;;;;108.68;4.35;;;;;;;;;;4980551;28;20109;-54
2023/10/28 11:31:54;;;;;;;122.90;4.90;;;;;;;;;;4978993;28;20042;-55
2023/10/28 11:34:20;;;;;;;176.82;9.95;;;;;;;;;;4981056;28;20535;-54
2023/10/28 11:36:45;;;;;;;181.07;7.13;;;;;;;;;;4983265;28;20125;-54
2023/10/28 11:39:13;;;;;;;258.30;10.17;;;;;;;;;;4979915;28;20269;-55
2023/10/28 11:41:42;;;;;;;135.48;5.60;;;;;;;;;;4977795;28;20690;-54
2023/10/28 11:44:09;;;;;;;226.77;8.27;;;;;;;;;;4977316;28;20045;-55
2023/10/28 11:46:34;;;;;;;181.63;8.27;;;;;;;;;;4977141;28;20038;-55
2023/10/28 11:49:00;;;;;;;117.37;4.93;;;;;;;;;;4979791;28;20363;-54
2023/10/28 11:51:27;;;;;;;172.85;6.50;;;;;;;;;;4976990;28;20281;-54
2023/10/28 11:53:53;;;;;;;165.00;10.43;;;;;;;;;;4977607;28;20034;-54
2023/10/28 11:56:21;;;;;;;218.65;8.63;;;;;;;;;;4975329;28;20038;-55
2023/10/28 11:58:49;;;;;;;113.45;5.18;;;;;;;;;;4980063;28;20022;-55
2023/10/28 12:01:14;;;;;;;205.30;8.13;;;;;;;;;;4977317;28;20034;-55
2023/10/28 12:03:39;;;;;;;145.00;5.75;;;;;;;;;;4980326;28;20384;-55
2023/10/28 12:06:05;;;;;;;162.90;6.57;;;;;;;;;;4977860;28;20057;-56
2023/10/28 12:08:30;;;;;;;122.82;5.05;;;;;;;;;;4978679;28;20045;-54
2023/10/28 12:10:55;;;;;;;177.17;16.90;;;;;;;;;;4979192;28;20038;-57
2023/10/28 12:13:21;;;;;;;282.38;10.52;;;;;;;;;;4972745;28;20285;-57
2023/10/28 12:15:46;;;;;;;131.68;10.50;;;;;;;;;;4976468;28;20042;-55
2023/10/28 12:18:11;;;;;;;205.18;7.97;;;;;;;;;;4979873;28;20033;-55
2023/10/28 12:20:37;;;;;;;157.23;6.10;;;;;;;;;;4979583;28;20034;-57
2023/10/28 12:23:03;;;;;;;146.65;5.40;;;;;;;;;;4977695;28;20078;-55
2023/10/28 12:25:28;;;;;;;161.25;6.20;;;;;;;;;;4973500;28;20027;-55
2023/10/28 12:27:54;;;;;;;177.32;6.60;;;;;;;;;;5012319;28;20054;-54
2023/10/28 12:30:19;;;;;;;164.82;6.38;;;;;;;;;;4977543;28;20026;-54
2023/10/28 12:32:46;;;;;;;141.55;5.95;;;;;;;;;;4978404;28;20025;-54
2023/10/28 12:35:13;;;;;;;212.45;8.18;;;;;;;;;;4976226;28;20129;-54
2023/10/28 12:37:39;;;;;;;110.60;4.53;;;;;;;;;;4980183;28;20026;-55
2023/10/28 12:40:05;;;;;;;173.55;6.63;;;;;;;;;;4977441;28;20406;-54
2023/10/28 12:42:31;;;;;;;182.98;8.55;;;;;;;;;;4977128;28;20057;-54
2023/10/28 12:44:56;;;;;;;129.30;4.93;;;;;;;;;;4980450;28;20069;-56
2023/10/28 12:47:21;;;;;;;180.75;8.38;;;;;;;;;;4975194;28;20082;-54
2023/10/28 12:49:47;;;;;;;145.40;5.63;;;;;;;;;;4980410;28;20482;-55
2023/10/28 12:52:12;;;;;;;176.20;6.68;;;;;;;;;;4978110;28;20377;-55
2023/10/28 12:54:38;;;;;;;143.20;5.82;;;;;;;;;;4977740;28;20037;-55
2023/10/28 12:57:05;;;;;;;104.53;5.95;;;;;;;;;;4975522;28;20034;-56
2023/10/28 12:59:30;;;;;;;153.75;7.30;;;;;;;;;;4976029;28;20036;-55
2023/10/28 13:01:55;;;;;;;115.32;5.53;;;;;;;;;;4975692;28;20031;-56
2023/10/28 13:04:22;;;;;;;228.75;9.20;;;;;;;;;;4978615;28;20045;-54
2023/10/28 13:06:48;;;;;;;167.95;6.47;;;;;;;;;;4980289;28;20384;-55
2023/10/28 13:09:13;;;;;;;251.63;9.90;;;;;;;;;;4981496;28;20030;-55
2023/10/28 13:11:39;;;;;;;130.00;5.07;;;;;;;;;;4981054;28;20054;-56
2023/10/28 13:14:05;;;;;;;229.65;8.25;;;;;;;;;;4982074;28;20030;-56
2023/10/28 13:16:32;;;;;;;163.82;6.38;;;;;;;;;;4981012;28;20643;-55
2023/10/28 13:18:57;;;;;;;105.82;4.55;;;;;;;;;;4985452;28;20025;-55
2023/10/28 13:21:23;;;;;;;187.73;7.90;;;;;;;;;;4983801;28;20042;-56
2023/10/28 13:23:48;;;;;;;132.20;5.80;;;;;;;;;;4982745;28;20761;-55
2023/10/28 13:26:13;;;;;;;118.07;5.43;;;;;;;;;;4977091;28;20596;-56
2023/10/28 13:28:39;;;;;;;157.90;6.53;;;;;;;;;;4980283;28;20749;-57
2023/10/28 13:31:04;;;;;;;139.75;5.47;;;;;;;;;;4979943;28;20049;-56
2023/10/28 13:33:30;;;;;;;94.10;4.27;;;;;;;;;;4975397;28;20034;-58
2023/10/28 13:35:55;;;;;;;142.90;5.80;;;;;;;;;;4982318;28;20812;-57
2023/10/28 13:38:21;;;;;;;183.02;7.40;;;;;;;;;;4980229;28;20053;-56
2023/10/28 13:41:56;;;;;;;244.73;8.32;;;;;;;;;;5039092;27;20444;-55
2023/10/28 13:44:21;;;;;;;282.98;9.68;;;;;;;;;;5019523;28;20029;-56
2023/10/28 13:46:46;;;;;;;124.23;5.77;;;;;;;;;;5023007;28;20033;-55
2023/10/28 13:49:14;;;;;;;219.07;8.53;;;;;;;;;;5021167;28;20278;-56
2023/10/28 13:51:39;;;;;;;203.55;8.00;;;;;;;;;;5022147;28;20711;-55
2023/10/28 13:54:04;;;;;;;220.20;8.50;;;;;;;;;;5022108;28;20032;-54
2023/10/28 13:56:30;;;;;;;296.98;12.43;;;;;;;;;;5019863;28;20623;-55
2023/10/28 13:58:55;;;;;;;190.73;6.80;;;;;;;;;;5021233;28;20429;-55
2023/10/28 14:01:20;;;;;;;181.00;7.27;;;;;;;;;;5023046;28;20318;-56
2023/10/28 14:03:45;;;;;;;175.00;6.83;;;;;;;;;;5024167;28;20275;-55
2023/10/28 14:06:14;;;;;;;217.25;8.35;;;;;;;;;;5022993;28;20295;-55
2023/10/28 14:08:40;;;;;;;175.93;6.88;;;;;;;;;;5022526;28;20032;-55